sensor_id;sensor_type;location;lat;lon;timestamp;pressure;altitude;pressure_sealevel;temperature;humidity
31096;BME280;17749;51.962;8.560;2023-11-19T06:02:16;99210.81;;;10.52;100.00
31096;BME280;17749;51.962;8.560;2023-11-19T06:04:43;99213.28;;;10.56;100.00
31096;BME280;17749;51.962;8.560;2023-11-19T06:07:11;99204.38;;;10.57;100.00
31096;BME280;17749;51.962;8.560;2023-11-19T06:09:38;99205.91;;;10.61;100.00
31096;BME280;17749;51.962;8.560;2023-11-19T06:12:10;99203.97;;;10.64;100.00
31096;BME280;17749;51.962;8.560;2023-11-19T06:14:37;99215.31;;;10.68;100.00
31096;BME280;17749;51.962;8.560;2023-11-19T06:17:04;99202.94;;;10.67;100.00
31096;BME280;17749;51.962;8.560;2023-11-19T06:19:31;99208.44;;;10.64;100.00
31096;BME280;17749;51.962;8.560;2023-11-19T06:21:58;99211.84;;;10.66;100.00
31096;BME280;17749;51.962;8.560;2023-11-19T06:24:25;99211.84;;;10.66;100.00
31096;BME280;17749;51.962;8.560;2023-11-19T06:26:52;99204.13;;;10.61;100.00
31096;BME280;17749;51.962;8.560;2023-11-19T06:29:20;99204.38;;;10.57;100.00
31096;BME280;17749;51.962;8.560;2023-11-19T06:31:47;99209.00;;;10.53;100.00
31096;BME280;17749;51.962;8.560;2023-11-19T06:34:16;99211.81;;;10.50;100.00
31096;BME280;17749;51.962;8.560;2023-11-19T06:36:43;99221.56;;;10.51;100.00
31096;BME280;17749;51.962;8.560;2023-11-19T06:39:10;99213.63;;;10.49;100.00
31096;BME280;17749;51.962;8.560;2023-11-19T06:41:45;99217.25;;;10.48;100.00
31096;BME280;17749;51.962;8.560;2023-11-19T06:44:13;99202.22;;;10.47;100.00
31096;BME280;17749;51.962;8.560;2023-11-19T06:46:40;99221.78;;;10.46;100.00
31096;BME280;17749;51.962;8.560;2023-11-19T06:49:07;99222.66;;;10.47;100.00
31096;BME280;17749;51.962;8.560;2023-11-19T06:51:34;99222.66;;;10.47;100.00
31096;BME280;17749;51.962;8.560;2023-11-19T06:54:01;99217.16;;;10.50;100.00
31096;BME280;17749;51.962;8.560;2023-11-19T06:56:28;99225.06;;;10.51;100.00
31096;BME280;17749;51.962;8.560;2023-11-19T06:58:55;99224.22;;;10.51;100.00
31096;BME280;17749;51.962;8.560;2023-11-19T07:01:22;99225.06;;;10.51;100.00
31096;BME280;17749;51.962;8.560;2023-11-19T07:03:49;99221.44;;;10.52;100.00
31096;BME280;17749;51.962;8.560;2023-11-19T07:06:18;99221.44;;;10.52;100.00
31096;BME280;17749;51.962;8.560;2023-11-19T07:08:45;99231.94;;;10.56;100.00
31096;BME280;17749;51.962;8.560;2023-11-19T07:11:12;99236.31;;;10.57;100.00
31096;BME280;17749;51.962;8.560;2023-11-19T07:13:40;99240.88;;;10.55;100.00
31096;BME280;17749;51.962;8.560;2023-11-19T07:16:08;99247.91;;;10.56;100.00
31096;BME280;17749;51.962;8.560;2023-11-19T07:18:36;99240.69;;;10.58;100.00
31096;BME280;17749;51.962;8.560;2023-11-19T07:21:04;99239.69;;;10.60;100.00
31096;BME280;17749;51.962;8.560;2023-11-19T07:23:31;99239.38;;;10.66;100.00
31096;BME280;17749;51.962;8.560;2023-11-19T07:25:59;99240.22;;;10.67;100.00
31096;BME280;17749;51.962;8.560;2023-11-19T07:28:26;99240.22;;;10.67;100.00
31096;BME280;17749;51.962;8.560;2023-11-19T07:30:55;99240.38;;;10.64;100.00
31096;BME280;17749;51.962;8.560;2023-11-19T07:33:25;99242.94;;;10.65;100.00
31096;BME280;17749;51.962;8.560;2023-11-19T07:35:52;99242.78;;;10.68;100.00
31096;BME280;17749;51.962;8.560;2023-11-19T07:38:19;99253.44;;;10.68;100.00
31096;BME280;17749;51.962;8.560;2023-11-19T07:40:46;99252.69;;;10.66;100.00
31096;BME280;17749;51.962;8.560;2023-11-19T07:43:17;99252.91;;;10.62;100.00
31096;BME280;17749;51.962;8.560;2023-11-19T07:45:44;99257.28;;;10.63;100.00
31096;BME280;17749;51.962;8.560;2023-11-19T07:48:12;99258.94;;;10.65;100.00
31096;BME280;17749;51.962;8.560;2023-11-19T07:50:40;99269.69;;;10.64;100.00
31096;BME280;17749;51.962;8.560;2023-11-19T07:53:09;99276.63;;;10.66;100.00
31096;BME280;17749;51.962;8.560;2023-11-19T07:55:37;99269.69;;;10.64;100.00
31096;BME280;17749;51.962;8.560;2023-11-19T07:58:08;99257.13;;;10.66;100.00
31096;BME280;17749;51.962;8.560;2023-11-19T08:00:35;99258.06;;;10.65;100.00
31096;BME280;17749;51.962;8.560;2023-11-19T08:03:03;99263.22;;;10.68;100.00
31096;BME280;17749;51.962;8.560;2023-11-19T08:05:31;99274.72;;;10.68;100.00
31096;BME280;17749;51.962;8.560;2023-11-19T08:07:58;99272.84;;;10.70;100.00
31096;BME280;17749;51.962;8.560;2023-11-19T08:10:26;99279.75;;;10.74;100.00
31096;BME280;17749;51.962;8.560;2023-11-19T08:12:53;99284.97;;;10.76;100.00
31096;BME280;17749;51.962;8.560;2023-11-19T08:15:20;99284.06;;;10.77;100.00
31096;BME280;17749;51.962;8.560;2023-11-19T08:17:50;99281.47;;;10.75;100.00
31096;BME280;17749;51.962;8.560;2023-11-19T08:20:18;99289.50;;;10.74;100.00
31096;BME280;17749;51.962;8.560;2023-11-19T08:22:45;99293.13;;;10.73;100.00
31096;BME280;17749;51.962;8.560;2023-11-19T08:25:12;99300.28;;;10.72;100.00
31096;BME280;17749;51.962;8.560;2023-11-19T08:27:39;99296.75;;;10.72;100.00
31096;BME280;17749;51.962;8.560;2023-11-19T08:30:07;99309.09;;;10.73;100.00
31096;BME280;17749;51.962;8.560;2023-11-19T08:32:34;99304.56;;;10.75;100.00
31096;BME280;17749;51.962;8.560;2023-11-19T08:35:01;99299.69;;;10.83;100.00
31096;BME280;17749;51.962;8.560;2023-11-19T08:37:28;99310.00;;;10.89;100.00
31096;BME280;17749;51.962;8.560;2023-11-19T08:39:55;99299.88;;;10.96;100.00
31096;BME280;17749;51.962;8.560;2023-11-19T08:42:23;99296.97;;;11.01;100.00
31096;BME280;17749;51.962;8.560;2023-11-19T08:44:50;99295.78;;;11.06;100.00
31096;BME280;17749;51.962;8.560;2023-11-19T08:47:17;99296.03;;;11.02;100.00
31096;BME280;17749;51.962;8.560;2023-11-19T08:49:47;99294.22;;;11.02;100.00
31096;BME280;17749;51.962;8.560;2023-11-19T08:52:30;99291.47;;;11.04;100.00
31096;BME280;17749;51.962;8.560;2023-11-19T08:55:01;99299.38;;;11.05;100.00
31096;BME280;17749;51.962;8.560;2023-11-19T08:57:28;99300.25;;;11.06;100.00
31096;BME280;17749;51.962;8.560;2023-11-19T08:59:55;99302.31;;;11.01;100.00
31096;BME280;17749;51.962;8.560;2023-11-19T09:02:22;99320.94;;;11.01;100.00
31096;BME280;17749;51.962;8.560;2023-11-19T09:04:49;99308.56;;;11.00;100.00
31096;BME280;17749;51.962;8.560;2023-11-19T09:07:19;99323.00;;;10.95;100.00
31096;BME280;17749;51.962;8.560;2023-11-19T09:09:48;99320.47;;;10.92;100.00
31096;BME280;17749;51.962;8.560;2023-11-19T09:12:15;99318.00;;;10.89;100.00
31096;BME280;17749;51.962;8.560;2023-11-19T09:14:42;99321.84;;;10.84;100.00
31096;BME280;17749;51.962;8.560;2023-11-19T09:17:09;99328.19;;;10.81;100.00
31096;BME280;17749;51.962;8.560;2023-11-19T09:19:37;99330.06;;;10.79;100.00
31096;BME280;17749;51.962;8.560;2023-11-19T09:22:04;99321.06;;;10.82;100.00
31096;BME280;17749;51.962;8.560;2023-11-19T09:24:30;99329.78;;;10.85;100.00
31096;BME280;17749;51.962;8.560;2023-11-19T09:26:57;99323.25;;;10.91;100.00
31096;BME280;17749;51.962;8.560;2023-11-19T09:29:24;99339.41;;;10.88;100.00
31096;BME280;17749;51.962;8.560;2023-11-19T09:31:51;99333.03;;;10.90;100.00
31096;BME280;17749;51.962;8.560;2023-11-19T09:34:18;99341.22;;;10.87;100.00
31096;BME280;17749;51.962;8.560;2023-11-19T09:36:45;99344.00;;;10.84;100.00
31096;BME280;17749;51.962;8.560;2023-11-19T09:39:13;99341.78;;;10.92;100.00
31096;BME280;17749;51.962;8.560;2023-11-19T09:41:45;99349.53;;;10.97;100.00
31096;BME280;17749;51.962;8.560;2023-11-19T09:44:12;99332.63;;;10.98;100.00
31096;BME280;17749;51.962;8.560;2023-11-19T09:46:41;99344.16;;;10.99;100.00
31096;BME280;17749;51.962;8.560;2023-11-19T09:49:08;99339.75;;;10.97;100.00
31096;BME280;17749;51.962;8.560;2023-11-19T09:51:36;99341.66;;;10.95;100.00
31096;BME280;17749;51.962;8.560;2023-11-19T09:54:04;99348.34;;;11.03;100.00
31096;BME280;17749;51.962;8.560;2023-11-19T09:56:32;99338.31;;;11.08;100.00
31096;BME280;17749;51.962;8.560;2023-11-19T09:58:59;99346.91;;;11.13;100.00
31096;BME280;17749;51.962;8.560;2023-11-19T10:01:27;99344.97;;;11.16;100.00
31096;BME280;17749;51.962;8.560;2023-11-19T10:03:55;99334.72;;;11.25;100.00
31096;BME280;17749;51.962;8.560;2023-11-19T10:06:24;99324.56;;;11.31;100.00
31096;BME280;17749;51.962;8.560;2023-11-19T10:08:53;99331.13;;;11.41;100.00
31096;BME280;17749;51.962;8.560;2023-11-19T10:11:22;99327.53;;;11.43;100.00
31096;BME280;17749;51.962;8.560;2023-11-19T10:13:49;99339.72;;;11.47;100.00
31096;BME280;17749;51.962;8.560;2023-11-19T10:16:17;99334.91;;;11.53;100.00
31096;BME280;17749;51.962;8.560;2023-11-19T10:18:45;99331.41;;;11.53;100.00
31096;BME280;17749;51.962;8.560;2023-11-19T10:21:13;99329.66;;;11.52;100.00
31096;BME280;17749;51.962;8.560;2023-11-19T10:23:48;99333.88;;;11.56;100.00
31096;BME280;17749;51.962;8.560;2023-11-19T10:26:16;99335.41;;;11.60;100.00
31096;BME280;17749;51.962;8.560;2023-11-19T10:28:43;99344.63;;;11.54;100.00
31096;BME280;17749;51.962;8.560;2023-11-19T10:31:13;99334.63;;;11.58;100.00
31096;BME280;17749;51.962;8.560;2023-11-19T10:33:41;99327.41;;;11.60;100.00
31096;BME280;17749;51.962;8.560;2023-11-19T10:36:09;99330.50;;;11.68;100.00
31096;BME280;17749;51.962;8.560;2023-11-19T10:38:36;99338.97;;;11.76;100.00
31096;BME280;17749;51.962;8.560;2023-11-19T10:41:03;99340.31;;;11.83;100.00
31096;BME280;17749;51.962;8.560;2023-11-19T10:43:42;99340.66;;;11.77;100.00
31096;BME280;17749;51.962;8.560;2023-11-19T10:46:13;99331.53;;;11.81;100.00
31096;BME280;17749;51.962;8.560;2023-11-19T10:48:40;99335.94;;;11.82;100.00
31096;BME280;17749;51.962;8.560;2023-11-19T10:51:07;99328.63;;;11.86;100.00
31096;BME280;17749;51.962;8.560;2023-11-19T10:53:38;99323.63;;;11.80;100.00
31096;BME280;17749;51.962;8.560;2023-11-19T10:56:09;99338.59;;;11.82;100.00
31096;BME280;17749;51.962;8.560;2023-11-19T10:58:37;99310.09;;;11.83;100.00
31096;BME280;17749;51.962;8.560;2023-11-19T11:01:13;99319.16;;;11.80;100.00
31096;BME280;17749;51.962;8.560;2023-11-19T11:03:41;99328.56;;;11.88;100.00
31096;BME280;17749;51.962;8.560;2023-11-19T11:06:10;99317.06;;;11.85;100.00
31096;BME280;17749;51.962;8.560;2023-11-19T11:08:39;99316.47;;;11.80;100.00
31096;BME280;17749;51.962;8.560;2023-11-19T11:11:07;99314.00;;;11.77;100.00
31096;BME280;17749;51.962;8.560;2023-11-19T11:13:36;99294.19;;;11.66;100.00
31096;BME280;17749;51.962;8.560;2023-11-19T11:16:05;99293.53;;;11.62;100.00
31096;BME280;17749;51.962;8.560;2023-11-19T11:18:34;99295.78;;;11.54;100.00
31096;BME280;17749;51.962;8.560;2023-11-19T11:21:13;99290.03;;;11.46;100.00
31096;BME280;17749;51.962;8.560;2023-11-19T11:23:56;99282.22;;;11.43;100.00
31096;BME280;17749;51.962;8.560;2023-11-19T11:29:20;99297.31;;;11.58;100.00
31096;BME280;17749;51.962;8.560;2023-11-19T11:32:13;99298.88;;;11.62;100.00
31096;BME280;17749;51.962;8.560;2023-11-19T11:37:49;99301.03;;;11.71;100.00
31096;BME280;17749;51.962;8.560;2023-11-19T11:40:17;99304.72;;;11.69;100.00
31096;BME280;17749;51.962;8.560;2023-11-19T11:42:50;99285.28;;;11.67;100.00
31096;BME280;17749;51.962;8.560;2023-11-19T11:45:35;99292.41;;;11.66;100.00
31096;BME280;17749;51.962;8.560;2023-11-19T11:48:12;99296.97;;;11.64;100.00
31096;BME280;17749;51.962;8.560;2023-11-19T11:50:50;99295.41;;;11.60;100.00
31096;BME280;17749;51.962;8.560;2023-11-19T11:53:19;99295.78;;;11.54;100.00
31096;BME280;17749;51.962;8.560;2023-11-19T11:58:27;99296.28;;;11.45;100.00
31096;BME280;17749;51.962;8.560;2023-11-19T12:00:59;99293.03;;;11.39;100.00
31096;BME280;17749;51.962;8.560;2023-11-19T12:03:28;99282.22;;;11.43;100.00
31096;BME280;17749;51.962;8.560;2023-11-19T12:05:57;99294.41;;;11.47;100.00
31096;BME280;17749;51.962;8.560;2023-11-19T12:08:26;99283.56;;;11.50;100.00
31096;BME280;17749;51.962;8.560;2023-11-19T12:10:55;99279.97;;;11.51;100.00
31096;BME280;17749;51.962;8.560;2023-11-19T12:13:54;99279.97;;;11.51;100.00
31096;BME280;17749;51.962;8.560;2023-11-19T12:16:26;99277.13;;;11.54;100.00
31096;BME280;17749;51.962;8.560;2023-11-19T12:18:55;99273.59;;;11.53;100.00
31096;BME280;17749;51.962;8.560;2023-11-19T12:21:30;99277.91;;;11.56;100.00
31096;BME280;17749;51.962;8.560;2023-11-19T12:23:59;99270.50;;;11.61;100.00
31096;BME280;17749;51.962;8.560;2023-11-19T12:26:35;99270.78;;;11.71;100.00
31096;BME280;17749;51.962;8.560;2023-11-19T12:29:03;99274.25;;;11.89;100.00
31096;BME280;17749;51.962;8.560;2023-11-19T12:31:35;99265.41;;;12.02;100.00
31096;BME280;17749;51.962;8.560;2023-11-19T12:34:06;99264.38;;;12.05;100.00
31096;BME280;17749;51.962;8.560;2023-11-19T12:36:34;99264.56;;;12.02;100.00
31096;BME280;17749;51.962;8.560;2023-11-19T12:39:02;99263.03;;;11.98;100.00
31096;BME280;17749;51.962;8.560;2023-11-19T12:41:30;99268.56;;;11.95;100.00
31096;BME280;17749;51.962;8.560;2023-11-19T12:44:10;99252.13;;;11.87;100.00
31096;BME280;17749;51.962;8.560;2023-11-19T12:46:39;99245.66;;;11.91;100.00
31096;BME280;17749;51.962;8.560;2023-11-19T12:49:06;99251.00;;;11.91;100.00
31096;BME280;17749;51.962;8.560;2023-11-19T12:51:33;99256.53;;;11.88;100.00
31096;BME280;17749;51.962;8.560;2023-11-19T12:54:00;99253.22;;;11.82;100.00
31096;BME280;17749;51.962;8.560;2023-11-19T12:56:27;99257.97;;;11.77;100.00
31096;BME280;17749;51.962;8.560;2023-11-19T12:58:54;99248.09;;;11.79;100.00
31096;BME280;17749;51.962;8.560;2023-11-19T13:01:21;99246.94;;;11.83;100.00
31096;BME280;17749;51.962;8.560;2023-11-19T13:03:48;99237.41;;;11.79;100.00
31096;BME280;17749;51.962;8.560;2023-11-19T13:06:17;99247.72;;;11.85;100.00
31096;BME280;17749;51.962;8.560;2023-11-19T13:08:45;99240.59;;;11.86;100.00
31096;BME280;17749;51.962;8.560;2023-11-19T13:11:13;99239.66;;;11.87;100.00
31096;BME280;17749;51.962;8.560;2023-11-19T13:14:00;99239.56;;;11.89;100.00
31096;BME280;17749;51.962;8.560;2023-11-19T13:16:31;99237.03;;;11.85;100.00
31096;BME280;17749;51.962;8.560;2023-11-19T13:18:58;99236.88;;;11.89;100.00
31096;BME280;17749;51.962;8.560;2023-11-19T13:21:27;99233.09;;;11.93;100.00
31096;BME280;17749;51.962;8.560;2023-11-19T13:23:54;99240.41;;;11.89;100.00
31096;BME280;17749;51.962;8.560;2023-11-19T13:26:22;99230.78;;;11.87;100.00
31096;BME280;17749;51.962;8.560;2023-11-19T13:28:49;99228.25;;;11.83;100.00
31096;BME280;17749;51.962;8.560;2023-11-19T13:31:20;99227.19;;;11.88;100.00
31096;BME280;17749;51.962;8.560;2023-11-19T13:33:50;99219.00;;;11.91;100.00
31096;BME280;17749;51.962;8.560;2023-11-19T13:36:17;99210.03;;;11.92;100.00
31096;BME280;17749;51.962;8.560;2023-11-19T13:38:45;99211.56;;;11.96;100.00
31096;BME280;17749;51.962;8.560;2023-11-19T13:41:13;99218.44;;;12.00;100.00
31096;BME280;17749;51.962;8.560;2023-11-19T13:43:41;99211.19;;;12.02;100.00
31096;BME280;17749;51.962;8.560;2023-11-19T13:46:08;99213.13;;;12.00;100.00
31096;BME280;17749;51.962;8.560;2023-11-19T13:48:38;99216.81;;;11.97;100.00
31096;BME280;17749;51.962;8.560;2023-11-19T13:51:06;99211.84;;;11.91;100.00
31096;BME280;17749;51.962;8.560;2023-11-19T13:53:37;99215.66;;;11.87;100.00
31096;BME280;17749;51.962;8.560;2023-11-19T13:56:07;99214.06;;;11.83;100.00
31096;BME280;17749;51.962;8.560;2023-11-19T13:58:37;99222.25;;;11.80;100.00
31096;BME280;17749;51.962;8.560;2023-11-19T14:01:05;99203.84;;;11.75;100.00
31096;BME280;17749;51.962;8.560;2023-11-19T14:03:32;99204.72;;;11.76;100.00
31096;BME280;17749;51.962;8.560;2023-11-19T14:06:01;99207.28;;;11.77;100.00
31096;BME280;17749;51.962;8.560;2023-11-19T14:08:28;99207.13;;;11.80;100.00
31096;BME280;17749;51.962;8.560;2023-11-19T14:11:00;99207.47;;;11.90;100.00
31096;BME280;17749;51.962;8.560;2023-11-19T14:13:27;99207.94;;;11.97;100.00
31096;BME280;17749;51.962;8.560;2023-11-19T14:15:54;99206.22;;;11.96;100.00
31096;BME280;17749;51.962;8.560;2023-11-19T14:18:21;99209.88;;;11.95;100.00
31096;BME280;17749;51.962;8.560;2023-11-19T14:20:49;99212.34;;;11.98;100.00
31096;BME280;17749;51.962;8.560;2023-11-19T14:23:19;99211.38;;;11.99;100.00
31096;BME280;17749;51.962;8.560;2023-11-19T14:25:46;99207.78;;;12.00;100.00
31096;BME280;17749;51.962;8.560;2023-11-19T14:28:13;99204.69;;;11.92;100.00
31096;BME280;17749;51.962;8.560;2023-11-19T14:30:40;99213.84;;;11.88;100.00
31096;BME280;17749;51.962;8.560;2023-11-19T14:33:08;99218.44;;;11.84;100.00
31096;BME280;17749;51.962;8.560;2023-11-19T14:35:40;99214.34;;;11.78;100.00
31096;BME280;17749;51.962;8.560;2023-11-19T14:38:07;99210.34;;;11.71;100.00
31096;BME280;17749;51.962;8.560;2023-11-19T14:40:39;99216.78;;;11.67;100.00
31096;BME280;17749;51.962;8.560;2023-11-19T14:43:09;99206.31;;;11.64;100.00
31096;BME280;17749;51.962;8.560;2023-11-19T14:45:39;99206.50;;;11.61;100.00
31096;BME280;17749;51.962;8.560;2023-11-19T14:48:16;99213.59;;;11.60;100.00
31096;BME280;17749;51.962;8.560;2023-11-19T14:50:45;99205.72;;;11.59;100.00
31096;BME280;17749;51.962;8.560;2023-11-19T14:53:12;99209.31;;;11.58;100.00
31096;BME280;17749;51.962;8.560;2023-11-19T14:55:39;99208.56;;;11.56;100.00
31096;BME280;17749;51.962;8.560;2023-11-19T14:58:06;99211.50;;;11.51;100.00
31096;BME280;17749;51.962;8.560;2023-11-19T15:00:37;99215.13;;;11.50;100.00
31096;BME280;17749;51.962;8.560;2023-11-19T15:03:09;99215.13;;;11.50;100.00
31096;BME280;17749;51.962;8.560;2023-11-19T15:05:36;99211.88;;;11.45;100.00
31096;BME280;17749;51.962;8.560;2023-11-19T15:08:03;99213.75;;;11.43;100.00
31096;BME280;17749;51.962;8.560;2023-11-19T15:10:34;99220.13;;;11.40;100.00
31096;BME280;17749;51.962;8.560;2023-11-19T15:13:01;99217.72;;;11.36;100.00
31096;BME280;17749;51.962;8.560;2023-11-19T15:15:28;99218.94;;;11.30;100.00
31096;BME280;17749;51.962;8.560;2023-11-19T15:17:58;99232.31;;;11.29;100.00
31096;BME280;17749;51.962;8.560;2023-11-19T15:20:25;99235.09;;;11.27;100.00
31096;BME280;17749;51.962;8.560;2023-11-19T15:22:58;99236.03;;;11.26;100.00
31096;BME280;17749;51.962;8.560;2023-11-19T15:25:25;99234.38;;;11.24;100.00
31096;BME280;17749;51.962;8.560;2023-11-19T15:27:52;99227.44;;;11.21;100.00
31096;BME280;17749;51.962;8.560;2023-11-19T15:30:19;99237.22;;;11.21;100.00
31096;BME280;17749;51.962;8.560;2023-11-19T15:32:46;99230.44;;;11.15;100.00
31096;BME280;17749;51.962;8.560;2023-11-19T15:35:13;99241.09;;;11.15;100.00
31096;BME280;17749;51.962;8.560;2023-11-19T15:37:40;99227.00;;;11.13;100.00
31096;BME280;17749;51.962;8.560;2023-11-19T15:40:10;99236.13;;;11.09;100.00
31096;BME280;17749;51.962;8.560;2023-11-19T15:42:40;99245.06;;;11.08;100.00
31096;BME280;17749;51.962;8.560;2023-11-19T15:45:08;99245.22;;;11.05;100.00
31096;BME280;17749;51.962;8.560;2023-11-19T15:47:36;99240.06;;;11.02;100.00
31096;BME280;17749;51.962;8.560;2023-11-19T15:50:03;99238.38;;;11.01;100.00
31096;BME280;17749;51.962;8.560;2023-11-19T15:52:31;99241.78;;;11.03;100.00
31096;BME280;17749;51.962;8.560;2023-11-19T15:54:58;99238.44;;;10.99;100.00
31096;BME280;17749;51.962;8.560;2023-11-19T15:57:29;99233.19;;;10.97;100.00
31096;BME280;17749;51.962;8.560;2023-11-19T15:59:56;99238.69;;;10.94;100.00
31096;BME280;17749;51.962;8.560;2023-11-19T16:02:23;99236.03;;;10.94;100.00
31096;BME280;17749;51.962;8.560;2023-11-19T16:04:50;99239.72;;;10.92;100.00
31096;BME280;17749;51.962;8.560;2023-11-19T16:07:18;99242.66;;;10.87;100.00
31096;BME280;17749;51.962;8.560;2023-11-19T16:09:46;99233.34;;;10.79;100.00
31096;BME280;17749;51.962;8.560;2023-11-19T16:12:14;99237.28;;;10.71;100.00
31096;BME280;17749;51.962;8.560;2023-11-19T16:14:44;99242.09;;;10.65;100.00
31096;BME280;17749;51.962;8.560;2023-11-19T16:17:12;99229.88;;;10.61;100.00
31096;BME280;17749;51.962;8.560;2023-11-19T16:19:39;99240.69;;;10.58;100.00
31096;BME280;17749;51.962;8.560;2023-11-19T16:22:08;99251.69;;;10.51;100.00
31096;BME280;17749;51.962;8.560;2023-11-19T16:24:38;99256.16;;;10.51;100.00
31096;BME280;17749;51.962;8.560;2023-11-19T16:27:05;99249.94;;;10.50;100.00
31096;BME280;17749;51.962;8.560;2023-11-19T16:29:32;99254.69;;;10.45;100.00
31096;BME280;17749;51.962;8.560;2023-11-19T16:31:59;99255.59;;;10.44;100.00
31096;BME280;17749;51.962;8.560;2023-11-19T16:34:26;99256.63;;;10.42;100.00
31096;BME280;17749;51.962;8.560;2023-11-19T16:36:53;99240.75;;;10.40;100.00
31096;BME280;17749;51.962;8.560;2023-11-19T16:39:20;99259.41;;;10.40;100.00
31096;BME280;17749;51.962;8.560;2023-11-19T16:41:47;99257.81;;;10.36;100.00
31096;BME280;17749;51.962;8.560;2023-11-19T16:44:14;99261.44;;;10.35;100.00
31096;BME280;17749;51.962;8.560;2023-11-19T16:46:41;99272.09;;;10.35;100.00
31096;BME280;17749;51.962;8.560;2023-11-19T16:49:08;99258.84;;;10.34;100.00
31096;BME280;17749;51.962;8.560;2023-11-19T16:51:35;99260.47;;;10.36;100.00
31096;BME280;17749;51.962;8.560;2023-11-19T16:54:01;99262.34;;;10.34;100.00
31096;BME280;17749;51.962;8.560;2023-11-19T16:56:30;99265.00;;;10.34;100.00
31096;BME280;17749;51.962;8.560;2023-11-19T16:59:00;99266.75;;;10.35;100.00
31096;BME280;17749;51.962;8.560;2023-11-19T17:01:27;99269.41;;;10.35;100.00
31096;BME280;17749;51.962;8.560;2023-11-19T17:03:54;99276.38;;;10.38;100.00
31096;BME280;17749;51.962;8.560;2023-11-19T17:06:21;99262.28;;;10.36;100.00
31096;BME280;17749;51.962;8.560;2023-11-19T17:08:49;99267.50;;;10.37;100.00
31096;BME280;17749;51.962;8.560;2023-11-19T17:11:16;99272.09;;;10.35;100.00
31096;BME280;17749;51.962;8.560;2023-11-19T17:13:42;99264.84;;;10.37;100.00
31096;BME280;17749;51.962;8.560;2023-11-19T17:16:09;99265.88;;;10.35;100.00
31096;BME280;17749;51.962;8.560;2023-11-19T17:18:37;99266.59;;;10.38;100.00
31096;BME280;17749;51.962;8.560;2023-11-19T17:21:05;99270.16;;;10.37;100.00
31096;BME280;17749;51.962;8.560;2023-11-19T17:23:32;99270.16;;;10.37;100.00
31096;BME280;17749;51.962;8.560;2023-11-19T17:25:59;99262.06;;;10.40;100.00
31096;BME280;17749;51.962;8.560;2023-11-19T17:28:26;99264.56;;;10.43;100.00
31096;BME280;17749;51.962;8.560;2023-11-19T17:30:53;99261.09;;;10.41;100.00
31096;BME280;17749;51.962;8.560;2023-11-19T17:33:20;99273.44;;;10.42;100.00
31096;BME280;17749;51.962;8.560;2023-11-19T17:35:48;99266.34;;;10.43;100.00
31096;BME280;17749;51.962;8.560;2023-11-19T17:38:14;99271.75;;;10.41;100.00
31096;BME280;17749;51.962;8.560;2023-11-19T17:40:44;99272.44;;;10.45;100.00
31096;BME280;17749;51.962;8.560;2023-11-19T17:43:13;99293.03;;;10.41;100.00
31096;BME280;17749;51.962;8.560;2023-11-19T17:45:42;99281.38;;;10.44;100.00
31096;BME280;17749;51.962;8.560;2023-11-19T17:48:10;99289.41;;;10.42;100.00
31096;BME280;17749;51.962;8.560;2023-11-19T17:50:37;99288.81;;;10.37;100.00
31096;BME280;17749;51.962;8.560;2023-11-19T17:53:04;99290.09;;;10.30;100.00
31096;BME280;17749;51.962;8.560;2023-11-19T17:55:31;99287.84;;;10.21;100.00
31096;BME280;17749;51.962;8.560;2023-11-19T17:57:58;99287.06;;;10.19;100.00
31096;BME280;17749;51.962;8.560;2023-11-19T18:00:25;99288.97;;;10.17;100.00
31096;BME280;17749;51.962;8.560;2023-11-19T18:02:54;99288.09;;;10.16;100.00
31096;BME280;17749;51.962;8.560;2023-11-19T18:05:21;99292.53;;;10.16;100.00
31096;BME280;17749;51.962;8.560;2023-11-19T18:07:49;99288.19;;;10.15;100.00
31096;BME280;17749;51.962;8.560;2023-11-19T18:10:16;99287.22;;;10.16;100.00
31096;BME280;17749;51.962;8.560;2023-11-19T18:12:44;99282.84;;;10.15;100.00
31096;BME280;17749;51.962;8.560;2023-11-19T18:15:11;99286.31;;;10.17;100.00
31096;BME280;17749;51.962;8.560;2023-11-19T18:17:41;99277.44;;;10.16;100.00
31096;BME280;17749;51.962;8.560;2023-11-19T18:20:10;99273.13;;;10.14;100.00
31096;BME280;17749;51.962;8.560;2023-11-19T18:22:43;99281.28;;;10.10;100.00
31096;BME280;17749;51.962;8.560;2023-11-19T18:25:12;99286.53;;;10.12;100.00
31096;BME280;17749;51.962;8.560;2023-11-19T18:27:40;99287.56;;;10.09;100.00
31096;BME280;17749;51.962;8.560;2023-11-19T18:30:09;99282.28;;;10.08;100.00
31096;BME280;17749;51.962;8.560;2023-11-19T18:32:38;99289.25;;;10.10;100.00
31096;BME280;17749;51.962;8.560;2023-11-19T18:35:15;99284.78;;;10.11;100.00
31096;BME280;17749;51.962;8.560;2023-11-19T18:37:51;99279.34;;;10.14;100.00
31096;BME280;17749;51.962;8.560;2023-11-19T18:40:18;99276.75;;;10.13;100.00
31096;BME280;17749;51.962;8.560;2023-11-19T18:42:48;99279.19;;;10.17;100.00
31096;BME280;17749;51.962;8.560;2023-11-19T18:45:19;99278.31;;;10.17;100.00
31096;BME280;17749;51.962;8.560;2023-11-19T18:47:48;99278.31;;;10.17;100.00
31096;BME280;17749;51.962;8.560;2023-11-19T18:50:17;99274.72;;;10.18;100.00
31096;BME280;17749;51.962;8.560;2023-11-19T18:52:45;99276.59;;;10.16;100.00
31096;BME280;17749;51.962;8.560;2023-11-19T18:55:12;99275.78;;;10.14;100.00
31096;BME280;17749;51.962;8.560;2023-11-19T18:57:39;99273.13;;;10.14;100.00
31096;BME280;17749;51.962;8.560;2023-11-19T19:00:06;99269.47;;;10.16;100.00
31096;BME280;17749;51.962;8.560;2023-11-19T19:02:36;99277.44;;;10.16;100.00
31096;BME280;17749;51.962;8.560;2023-11-19T19:05:28;99273.00;;;10.17;100.00
31096;BME280;17749;51.962;8.560;2023-11-19T19:07:55;99276.59;;;10.16;100.00